This is the latest recevied weather packets stored in our database for station/object SR2CPA-13. If no packets are shown the sender has not sent any weather packets the latest 1 day(s).
| Time | Temp. | Humidity | Pressure | Rain* | Wind** | Luminosity | Snow |
|---|---|---|---|---|---|---|---|
| 1836274523 | 13.33° C | 99% | 0 hPa | 0 mm | 0 m/s | - | - |
| 1836274393 | 13.33° C | 99% | 0 hPa | 0 mm | 0 m/s | - | - |
| 1836273923 | 13.89° C | 99% | 0 hPa | 0 mm | 0 m/s | - | - |
| 1778010138 | 10° C | 99% | 0 hPa | 0 mm | 0.45 m/s, 67° | - | - |
| 1778009538 | 10° C | 99% | 0 hPa | 0 mm | 0 m/s | - | - |
| 1778008918 | 10° C | 99% | 0 hPa | 0 mm | 0.45 m/s, 67° | - | - |
| 1778008318 | 10° C | 99% | 0 hPa | 0 mm | 0.45 m/s, 50° | - | - |
| 1778007718 | 10.56° C | 99% | 0 hPa | 0 mm | 0 m/s | - | - |
| 1778007098 | 10.56° C | 99% | 0 hPa | 0 mm | 0.45 m/s, 54° | - | - |
| 1778006497 | 10.56° C | 99% | 0 hPa | 0 mm | 0.45 m/s, 24° | - | - |
| 1778005878 | 10.56° C | 99% | 0 hPa | 0 mm | 0 m/s | - | - |
| 1778005277 | 11.11° C | 99% | 0 hPa | 0 mm | 0.45 m/s, 6° | - | - |
| 1778004677 | 11.11° C | 99% | 0 hPa | 0 mm | 0.89 m/s, 54° | - | - |
| 1778004077 | 11.67° C | 99% | 0 hPa | 0 mm | 0.45 m/s, 81° | - | - |
| 1778003478 | 11.67° C | 99% | 0 hPa | 0 mm | 2.24 m/s, 84° | - | - |
| 1778002877 | 11.67° C | 99% | 0 hPa | 0 mm | 2.68 m/s, 67° | - | - |
| 1778002257 | 12.22° C | 99% | 0 hPa | 0 mm | 0.45 m/s, 4° | - | - |
| 1778001657 | 12.22° C | 99% | 0 hPa | 0 mm | 1.34 m/s, 36° | - | - |
| 1778001057 | 12.22° C | 99% | 0 hPa | 0 mm | 1.34 m/s, 65° | - | - |
| 1778000457 | 12.22° C | 99% | 0 hPa | 0 mm | 2.24 m/s, 65° | - | - |
| 1777999857 | 12.78° C | 99% | 0 hPa | 0 mm | 1.34 m/s, 47° | - | - |
| 1777999257 | 12.78° C | 99% | 0 hPa | 0 mm | 1.34 m/s, 66° | - | - |
| 1777998637 | 12.78° C | 99% | 0 hPa | 0 mm | 0.89 m/s, 60° | - | - |
| 1777998037 | 12.78° C | 99% | 0 hPa | 0 mm | 1.34 m/s, 59° | - | - |
| 1777997437 | 12.78° C | 99% | 0 hPa | 0 mm | 1.34 m/s, 85° | - | - |
* Rain latest hour (hover to see other rain measurements)
** Current wind speed in m/s (hover to see current wind gust speed)